• Join FlightAware (Why Join?)
  • Login
  • US Flag 
10:54PM EDT


 

Airport Tracker/Info


-or-


 

Live Flight TrackerFlight Track Log ✈ EJA695 ✈ 21-Jul-2013 ✈ KPWM - KHTO

Flight Track Log - Related Links

Times and Time Zones

All times are in EDT time to prevent confusion due to time zone crossing. See the EJA695 flight status page for this flight to view local times or setup timezone preferences in your user account.

Time Position Orientation Groundspeed Altitude Reporting Facility
EDT Latitude Longitude Course Direction KTS MPH feet Rate Location/Type
08:26AM 43.6406 -70.2625 157° South 183 211 2,400  Level Boston Center
08:27AM 43.5939 -70.2183 146° Southeast 223 257 5,400 3,000 Climbing Boston Center
08:28AM 43.5144 -70.2128 177° South 258 297 8,500 2,760 Climbing Boston Center
08:29AM 43.4331 -70.2014 174° South 292 336 11,000 2,280 Climbing Boston Center
08:30AM 43.3431 -70.1903 175° South 318 366 13,100 1,920 Climbing Boston Center
08:31AM 43.2632 -70.5361 157° South  Level FlightAware Approximate
08:31AM 43.2511 -70.1794 175° South 333 383 14,900  Level Boston Center
08:32AM 43.1531 -70.1689 176° South 343 395 17,000 1,920 Climbing Boston Center
08:33AM 43.0653 -70.1581 175° South 351 404 18,800 1,740 Climbing Boston Center
08:34AM 42.9692 -70.1472 175° South 351 404 20,500 1,560 Climbing Boston Center
08:35AM 42.8731 -70.1367 175° South 351 404 22,000 720 Climbing Boston Center
08:36AM 42.7625 -70.1239 175° South 358 412 22,000  Level Boston Center
08:37AM 42.6642 -70.1106 174° South 358 412 22,000  Level Boston Center
08:38AM 42.5639 -70.1003 176° South 365 420 22,000  Level Boston Center
08:39AM 42.4639 -70.1069 183° South 364 419 22,000  Level Boston Center
08:40AM 42.3925 -70.1828 218° Southwest 323 372 22,000  Level Boston Center
08:41AM 42.3192 -70.2667 220° Southwest 337 388 22,000  Level Boston Center
08:42AM 42.2500 -70.3533 223° Southwest 348 400 22,000  Level Boston Center
08:43AM 42.2122 -70.4639 245° Southwest 338 389 22,000  Level Boston Center
08:44AM 42.1747 -70.5800 246° West 338 389 22,000  Level Boston Center
08:45AM 42.1306 -70.6906 242° Southwest 338 389 22,000  Level Boston Center
08:46AM 42.0336 -70.7489 204° Southwest 343 395 22,000  Level Boston Center
08:47AM 41.9272 -70.7519 181° South 345 397 22,000  Level Boston Center
08:48AM 41.8231 -70.7519 180° South 361 415 22,000  Level Boston Center
08:49AM 41.7022 -70.7578 182° South 379 436 22,000  Level Boston Center
08:50AM 41.6006 -70.7883 193° South 390 449 22,000 -300 Level Boston Center
08:51AM 41.5483 -70.9283 244° Southwest 340 391 21,500 -960 Descending Boston Center
08:51AM 41.5200 -71.0039 243° Southwest 374 430 20,500 -1,920 Descending Boston Center
08:53AM 41.4736 -71.1214 242° Southwest 306 352 18,200 -2,040 Descending Boston Center
08:54AM 41.4269 -71.2303 240° Southwest 307 353 16,000 -2,280 Descending Boston Center
08:55AM 41.3819 -71.3281 238° Southwest 305 351 13,500 -1,920 Descending Boston Center
08:56AM 41.3372 -71.4200 237° Southwest 294 338 12,100 -1,320 Descending Boston Center
08:57AM 41.2939 -71.4953 233° Southwest 295 339 11,000 -1,320 Descending Boston Center
08:58AM 41.2569 -71.5703 237° Southwest 249 287 9,800 -1,320 Descending Boston Center
08:58AM 41.2636 -71.6172 281° West 267 307 9,200 -1,380 Descending Boston Center
08:59AM 41.2853 -71.7108 287° West 245 282 7,800 -1,740 Descending Boston Center
09:00AM 41.2647 -71.7664 244° Southwest 255 293 6,400 -2,040 Descending Boston Center
09:01AM 41.2275 -71.8303 232° Southwest 268 308 4,700 -1,260 Descending Boston Center
09:02AM 41.1697 -71.9189 229° Southwest 263 303 3,900 -360 Descending Boston Center
09:03AM 41.1219 -71.9964 231° Southwest 261 300 4,000  Climbing Boston Center
09:04AM 41.0703 -72.0767 230° Southwest 267 307 3,900 -180 Descending Boston Center
09:05AM 41.0308 -72.1319 227° Southwest 244 281 3,600 -900 Descending Boston Center
09:06AM 40.9828 -72.1486 195° South 201 231 2,100 -1,500 Descending Boston Center
09:09AM 40.9594 -72.2517 56° Northeast  Level Estimated
09:16AM 40.9594 -72.2517 56° Northeast  Level Estimated
09:17AM 40.9594 -72.2517 56° Northeast  Level Estimated
09:18AM 40.9594 -72.2517 56° Northeast  Level Estimated
09:19AM 40.9594 -72.2517 56° Northeast  Level Estimated